Wednesday, May 04, 2016
01:55 UTC
  |  Log In   |  Register Free
Airport Search:

Raleigh-Durham International Airport
(KRDU)

FAA data valid effective Mar 31 2016 - May 26 2016 (unless otherwise noted).

 
 
 
 
 
 
 
 
 
 
 
 
 
 
Current Aviation Weather for KRDU

Weather Summary


The most recent METAR observation for RDU was updated at: 12:51 UTC
METAR for KRDU is not available. Closest METAR is for KIGX
KRDU  (most recent observation was updatred at 40:15 UTC)
040151Z 35003KT 7SM -TSRA SCT045CB SCT085 BKN110 18/17 A2976 RMK AO2 TSB48RAB45 SLP073 OCNL LTGICCG S-SW TS S-SW MOV E P0001 T01830172 $

KIGX  (14.0 nm SE)   (most recent observation was updated at 40:05 UTC)
040056Z AUTO 21004KT 10SM OVC110 19/17 A2975 RMK AO2 RAB39E52 SLP068 P0000 T01890172 TSNO

KTTA  (23.4 nm NE)   (most recent observation was updated at 40:13 UTC)
040130Z AUTO 00000KT 10SM SCT039 BKN060 BKN070 20/17 A2973 RMK AO2 T01980170

TAF for KRDU is not available.
KRDU
032331Z 0400/0424 23008KT P6SM VCSH SCT035 BKN200 FM040100 28003KT P6SM VCSH SCT035 SCT250 FM041500 30007KT P6SM SCT050

GlobalAir.com is loading additional information.
 Current Weather at RDU
66.0 F° (18.9 C°)

North winds at 0.0 mph
Pressure:
29.73 in
Humidity:
93%
Wind:
North at 0.0 mph
Dew Point:
64.0 F° (17.8 C°)
Visibility:
10.00 mi
RDU NOAA Radar




Find All Airport Services Find A Hotel Find A Rental Car Find A Golf Course Find A Restaurant $100 Hamburger



Airport Weather Forecast for KRDU

Translated METAR for KRDU (0151 UTC)
METAR:
KRDU 040151Z 35003KT 7SM -TSRA SCT045CB SCT085 BKN110 18/17 A2976 RMK AO2 TSB48RAB45 SLP073 OCNL LTGICCG S-SW TS S-SW MOV E P0001 T01830172 $
Conditions at:
KRDU (Raleigh-Durham Intl, NC) observed 0151 UTC 03 May 2016
Temperature:
18°C (64.4°F)
Dewpoint:
17°C (62.6°F) [RH = 93.9]
Pressure:
29.76 inches Hg (1007.8 mb)
pressure at sea level is 73 in Hg
Winds:
from the N (350 degrees) at 3.5 mph (3 knots: 1.5 m/s)
Visibility:
7 mile(s)
Ceiling:
11,000 feet AGL
Clouds:
Scattered Clouds
Scattered Clouds at 8,500 feet AGL
Broken Cloud Cover at 11,000 feet AGL
Remarks:
SOME DATA ABOVE MAY BE INACCURATE!!!
"$" is an indication the sensor requires maintenance
site is automated and HAS a precipitation sensor

Translated TAF for KRDU (Raleigh-Durham Intl, NC) (2331 UTC)
TAF text:
KRDU 032331Z 0400/0424 23008KT P6SM VCSH SCT035 BKN200
Forecast period:
Wednesday May 04 2016 00:00 UTC - Wednesday May 04 2016 24:00 UTC
Forecast type:
FROM: standard forecast or significant change
Winds:
from the SW (230 degrees) at 9.2 mph (8 knots: 4.1 m/s)
Visibility:
6 or more mile(s) (9.7+ km)
Ceiling:
20,000 feet AGL
Clouds:
Scattered Clouds at 3,500 feet AGL
Broken Cloud Cover at 20,000 feet AGL
Weather:
Moderate In Vicinity Shower(s)
TAF text:
FM040100 28003KT P6SM VCSH SCT035 SCT250
Forecast period:
Wednesday May 04 2016 01:00 UTC - Wednesday May 04 2016 15:00 UTC
Forecast type:
FROM: standard forecast or significant change
Winds:
from the W (280 degrees) at 3.5 mph (3 knots: 1.5 m/s)
Visibility:
6 or more mile(s) (9.7+ km)
Ceiling:
at least 12,000 feet AGL
Clouds:
Scattered Clouds at 3,500 feet AGL
Scattered Clouds at 25,000 feet AGL
Weather:
Moderate In Vicinity Shower(s)
TAF text:
FM041500 30007KT P6SM SCT050
Forecast period:
Wednesday May 04 2016 15:00 UTC - Wednesday May 04 2016 24:00 UTC
Forecast type:
FROM: standard forecast or significant change
Winds:
from the WNW (300 degrees) at 8.1 mph (7 knots: 3.6 m/s)
Visibility:
6 or more mile(s) (9.7+ km)
Ceiling:
at least 12,000 feet AGL
Clouds:
Scattered Clouds at 5,000 feet AGL
Weather:
no significant weather observed at this time
FBO's on the Field
FBO Company Facility Photos Services Transportation Aviation Fuel Prices: Prices include tax
Catering Weather Repair Courtesy Rental Type 100LL JetA JetA+ MOGAS 8087
 
Signature Flight Support - RDU

Currently rated 3.8 by 3 people
FS:Shell
Last Updated: May-03
Login to update fuel prices
SS:
Contact Signature Flight Support - RDUMore FBO Information
 
TAC Air - RDU

Currently rated 5 by 3 people
FS:Avfuel
Last Updated: Apr-28
Login to update fuel prices
SS:
Contact TAC Air - RDUMore FBO Information
 
Add another FBO Facility Photos Catering Weather Repair Courtesy Rental Type 100LL JetA JetA+ MOGAS 8087
Services Transportation Aviation Fuel Prices: Prices include tax


model-print
model-print
model-print
model-print